Aérodrome :
LOGIN :

S'inscrire | Disclaimer

   EN    FR    IT 

 










Légende :    VFR   VFR Marginal   IFR   IFR Intensif   IFR Très Intensif
Visi : 
Plafond : 
>= 8 km
>= 3000ft
5 à 8 km
1000 à 3000 ft
1500m à 5 km
500 à 1000 ft
800 à 1500m
200 à 500 ft
< 800m
< 200 ft
Symboles :   Orages  Brouillard  Fortes neiges  Fortes précipitations  Vent > 20 kt
SIGMETs :   Divers  Orages  Givrage  Turbulence  Onde Orograph.  Cendres Volcan.







- Altitude de l'aérodrome : 231 ft
- Code IATA : WTN


EGXW - RAF Waddington

DERNIER METAR :
  • 211450Z 23012KT 9999 FEW026 SCT140 BKN200 13/08 Q1004 BLU TEMPO SCT020 WHT

METARs EXPIRÉS :
  • 211418Z 23011KT 9999 FEW022 BKN140 BKN250 13/08 Q1004 BLU NOSIG
  • 211350Z 23014KT 9999 SCT020 BKN080 BKN250 13/09 Q1005 WHT TEMPO FEW020 BLU
  • 211302Z 24014KT 9999 SCT017 BKN080 BKN250 13/09 Q1005 WHT NOSIG
  • 211250Z 24017KT 9999 FEW018 SCT050 BKN080 13/09 Q1005 BLU TEMPO SCT018 WHT
  • 211236Z 24014G24KT 9999 SCT015 SCT050 BKN080 13/10 Q1006 WHT TEMPO FEW015 BLU

TAF TAF EGXW
Valide du 21 à 15h jusqu'au 22 à 09h UTC


211347Z 2115/2209 23014KT 9999 BKN022
TEMPO 2115/2117 22015G25KT SCT025
BECMG 2117/2119 22015G25KT BKN012
PROB40
TEMPO 2117/2203 4000 -RADZ
TEMPO 2207/2209 SCT016
Pas de NOTAMs connus pour ce terrain.



MET'MAP, la Météo Aéronautique d'un coup d'oeil ! - Copyright ORBIFLY Décembre 2007 - Disclaimer

ORBIFLY MET'MAP TEAM :

Programmation & Développement : Alexandra Zaïnal
Conception & Développement : Baudouin d'Aumeries
Co-Programmation & Développement : Marc-Olivier Méhu
Soutien technique & logistique : Manuel Goepfert

Contact : metmap@orbifly.com




SOURCES & CREDITS :

   NOAA